METAR Data
IDs: Format: Raw Decoded Include TAF

Data at: 2038 UTC 19 May 2019

PANW 191956Z AUTO 04007KT 10SM SCT060 BKN080 OVC090 11/03 A2967 RMK AO2 SLP064 T01110033
PANW 191856Z AUTO 01006KT 10SM FEW044 BKN080 OVC090 09/02 A2968 RMK AO2 SLP068 T00890022
PANW 191756Z AUTO 01009KT 10SM FEW050 BKN060 OVC120 09/02 A2969 RMK AO2 RAE09 SLP073 P0000 60000 T00890022 10089 20006 58010
PANW 191656Z AUTO 36006KT 10SM -RA OVC060 06/02 A2971 RMK AO2 RAB51 SLP077 P0000 T00560022
PANW 191556Z AUTO 01004KT 10SM OVC065 05/01 A2972 RMK AO2 SLP081 T00500011
PANW 191456Z AUTO 01006KT 10SM FEW048 OVC060 03/01 A2972 RMK AO2 UPB14E38 SLP082 P0000 60000 T00330006 58008
PANW 191356Z AUTO 01006KT 10SM SCT070 BKN085 BKN110 02/00 A2974 RMK AO2 SLP089 T00170000 FZRANO
PANW 191256Z AUTO 01006KT 10SM BKN120 01/M01 A2974 RMK AO2 SLP090 T00111006 FZRANO
PANW 191156Z AUTO 03005KT 10SM CLR 03/M01 A2974 RMK AO2 SLP090 T00331006 10100 20028 58006
PANW 191056Z AUTO 05006KT 10SM CLR 04/00 A2976 RMK AO2 SLP093 T00390000
PANW 190956Z AUTO 07007KT 10SM FEW060 05/01 A2976 RMK AO2 SLP094 T00500006
PANW 190856Z AUTO 05006KT 10SM CLR 06/01 A2976 RMK AO2 SLP095 T00560006 401280017 51003
PANW 190756Z AUTO 07007KT 10SM CLR 07/01 A2976 RMK AO2 SLP094 T00670006
PANW 190656Z AUTO 08006KT 10SM CLR 08/01 A2976 RMK AO2 SLP093 T00830006
PANW 190556Z AUTO 08009G14KT 10SM BKN080 10/01 A2975 RMK AO2 SLP092 T01000006 10128 20100 53001
PANW 190456Z AUTO 10009KT 10SM FEW050 11/00 A2975 RMK AO2 SLP091 T01110000
PANW 190356Z AUTO 11012G16KT 10SM CLR 12/M01 A2975 RMK AO2 SLP091 T01171006
PANW 190256Z AUTO 09008G17KT 10SM BKN060 12/00 A2975 RMK AO2 SLP092 T01220000 56005
PANW 190156Z AUTO 09007KT 9SM BKN055 12/M01 A2975 RMK AO2 SLP093 T01171006
PANW 190056Z AUTO 09012G16KT 10SM BKN060 12/00 A2976 RMK AO2 SLP094 T01220000
PANW 182356Z AUTO 08010KT 10SM OVC060 12/M01 A2976 RMK AO2 SLP096 T01171006 10122 20072 55003
PANW 182256Z AUTO 10009G16KT 10SM BKN055 12/01 A2976 RMK AO2 SLP096 T01220006
PANW 182156Z AUTO 11006KT 10SM FEW044 BKN060 11/01 A2977 RMK AO2 SLP098 T01110006
PANW 182056Z AUTO 36005KT 10SM SCT038 OVC050 11/03 A2977 RMK AO2 SLP099 T01110028 56002
PANW 181956Z AUTO 12008KT 10SM FEW030 BKN055 10/03 A2977 RMK AO2 SLP100 T01000028
PANW 181951Z AUTO 09009KT 10SM SCT028 BKN055 10/03 A2977 RMK AO2
PANW 181930Z AUTO 09007KT 10SM BKN028 10/03 A2978 RMK AO2
PANW 181856Z AUTO VRB06KT 10SM BKN033 BKN060 09/03 A2978 RMK AO2 SLP101 T00890033
PANW 181756Z AUTO 09007KT 10SM FEW035 07/03 A2977 RMK AO2 SLP100 T00720033 10072 20017 53006
PANW 181656Z AUTO 06007KT 10SM BKN060 06/03 A2977 RMK AO2 SLP097 T00560033
PANW 181556Z AUTO 01005KT 10SM OVC060 03/02 A2976 RMK AO2 SLP096 T00330022
PANW 181456Z AUTO 35004KT 10SM BKN042 OVC060 02/01 A2976 RMK AO2 SLP093 T00170011 51010 FZRANO
PANW 181356Z AUTO 06004KT 10SM BKN042 OVC065 03/02 A2975 RMK AO2 SLP090 T00280022
PANW 181256Z AUTO 05005KT 10SM OVC065 02/02 A2974 RMK AO2 SLP087 T00220022 FZRANO
PANW 181156Z AUTO 06005KT 10SM OVC060 03/03 A2973 RMK AO2 SLP084 60001 70002 T00330028 10083 20033 52008
PANW 181056Z AUTO 07004KT 10SM OVC065 04/03 A2972 RMK AO2 SLP080 T00390028
PANW 180956Z AUTO 09006KT 10SM BKN065 04/03 A2971 RMK AO2 SLP078 T00390028
PANW 180856Z AUTO 07005KT 10SM OVC055 04/03 A2970 RMK AO2 SLP075 60001 T00440033 401280000 53014